createdAt,value
2022-08-02T00:01:10.954Z,83.22
2022-08-02T00:06:12.886Z,82.79
2022-08-02T00:11:19.746Z,82.93
2022-08-02T00:16:21.483Z,82.60
2022-08-02T00:21:39.750Z,82.86
2022-08-02T00:26:41.695Z,83.06
2022-08-02T00:31:43.437Z,82.96
2022-08-02T00:36:47.685Z,83.86
2022-08-02T00:41:53.006Z,83.79
2022-08-02T00:46:58.037Z,84.43
2022-08-02T00:52:00.185Z,84.98
2022-08-02T00:57:05.284Z,84.34
2022-08-02T01:02:10.290Z,85.50
2022-08-02T01:07:31.060Z,85.12
2022-08-02T01:12:35.175Z,85.19
2022-08-02T01:18:04.162Z,86.09
2022-08-02T01:23:12.455Z,85.91
2022-08-02T01:28:42.706Z,86.96
2022-08-02T01:34:17.408Z,86.70
2022-08-02T01:39:26.975Z,86.73
2022-08-02T01:44:36.750Z,87.15
2022-08-02T01:49:39.973Z,87.68
2022-08-02T01:54:43.909Z,88.04
2022-08-02T01:59:49.111Z,88.63
2022-08-02T02:04:54.030Z,88.92
2022-08-02T02:09:59.011Z,88.86
2022-08-02T02:15:02.577Z,89.73
2022-08-02T02:20:09.189Z,89.54
2022-08-02T02:25:19.487Z,90.61
2022-08-02T02:30:33.078Z,89.91
2022-08-02T02:35:41.654Z,90.06
2022-08-02T02:40:48.098Z,90.87
2022-08-02T02:45:50.116Z,90.23
2022-08-02T02:50:52.272Z,91.65
2022-08-02T02:56:02.550Z,91.38
2022-08-02T03:01:55.798Z,92.37
2022-08-02T03:06:45.281Z,92.46
2022-08-02T03:11:49.610Z,93.12
2022-08-02T03:16:53.565Z,92.63
2022-08-02T03:21:58.315Z,92.21
2022-08-02T03:27:00.073Z,92.89
2022-08-02T03:32:04.561Z,92.53
2022-08-02T03:37:08.671Z,91.87
2022-08-02T03:42:15.505Z,92.32
2022-08-02T03:47:22.339Z,91.78
2022-08-02T03:52:27.269Z,91.93
2022-08-02T03:57:31.384Z,91.51
2022-08-02T04:02:36.062Z,91.87
2022-08-02T04:08:32.556Z,92.58
2022-08-02T04:13:10.617Z,91.58
2022-08-02T04:18:12.570Z,92.41
2022-08-02T04:23:15.361Z,91.58
2022-08-02T04:28:18.451Z,91.72
2022-08-02T04:33:22.852Z,92.68
2022-08-02T04:38:25.012Z,91.94
2022-08-02T04:43:26.772Z,93.02
2022-08-02T04:48:32.547Z,93.34
2022-08-02T04:53:40.519Z,93.78
2022-08-02T04:58:47.084Z,93.75
2022-08-02T05:03:54.348Z,94.12
2022-08-02T05:08:58.514Z,94.22
2022-08-02T05:14:05.432Z,95.05
2022-08-02T05:19:08.068Z,94.62
2022-08-02T05:24:12.441Z,94.72
2022-08-02T05:29:16.698Z,93.76
2022-08-02T05:34:18.419Z,92.86
2022-08-02T05:39:22.496Z,93.10
2022-08-02T05:44:27.314Z,92.15
2022-08-02T05:49:33.341Z,91.38
2022-08-02T05:54:49.465Z,90.55
2022-08-02T06:00:05.053Z,89.63
2022-08-02T06:05:22.639Z,88.26
2022-08-02T06:10:28.893Z,87.81
2022-08-02T06:15:33.903Z,87.43
2022-08-02T06:20:42.752Z,86.51
2022-08-02T06:25:49.714Z,85.65
2022-08-02T06:30:55.917Z,84.71
2022-08-02T06:36:19.404Z,84.89
2022-08-02T06:41:24.073Z,84.61
2022-08-02T06:47:09.170Z,83.84
2022-08-02T06:51:52.417Z,83.31
2022-08-02T06:56:59.109Z,82.31
2022-08-02T07:02:03.345Z,83.05
2022-08-02T07:07:12.688Z,82.79
2022-08-02T07:12:14.608Z,81.32
2022-08-02T07:17:19.065Z,81.83
2022-08-02T07:22:27.009Z,81.76
2022-08-02T07:27:32.223Z,80.82
2022-08-02T07:32:34.183Z,80.54
2022-08-02T07:37:54.983Z,80.30
2022-08-02T07:43:04.609Z,79.77
2022-08-02T07:48:08.564Z,80.14
2022-08-02T07:53:10.352Z,79.34
2022-08-02T07:58:14.495Z,80.12
2022-08-02T08:03:16.224Z,79.67
2022-08-02T08:08:24.968Z,79.53
2022-08-02T08:13:27.804Z,78.86
2022-08-02T08:18:32.278Z,78.77
2022-08-02T08:23:42.137Z,77.40
2022-08-02T08:28:43.956Z,76.54
2022-08-02T08:33:49.563Z,75.70
2022-08-02T08:38:52.550Z,72.23
2022-08-02T08:43:59.195Z,70.81
2022-08-02T08:49:06.792Z,69.87
2022-08-02T08:54:15.868Z,69.55
2022-08-02T08:59:21.146Z,68.47
2022-08-02T09:04:23.621Z,65.53
2022-08-02T09:09:25.548Z,63.07
2022-08-02T09:14:29.378Z,61.49
2022-08-02T09:19:46.255Z,59.91
2022-08-02T09:24:50.443Z,59.49
2022-08-02T09:30:12.423Z,57.64
2022-08-02T09:36:05.816Z,56.16
2022-08-02T09:41:05.731Z,55.97
2022-08-02T09:46:22.914Z,56.17
2022-08-02T09:51:32.268Z,55.82
2022-08-02T09:56:44.685Z,56.63
2022-08-02T10:01:58.869Z,55.50
2022-08-02T10:07:15.986Z,54.48
2022-08-02T10:12:18.515Z,53.03
2022-08-02T10:17:23.519Z,52.01
2022-08-02T10:22:25.641Z,51.93
2022-08-02T10:27:43.256Z,52.11
2022-08-02T10:32:57.075Z,50.31
2022-08-02T10:38:08.391Z,49.96
2022-08-02T10:43:10.126Z,50.02
2022-08-02T10:48:14.711Z,49.79
2022-08-02T10:53:34.975Z,49.75
2022-08-02T10:58:40.248Z,49.85
2022-08-02T11:03:49.753Z,50.27
2022-08-02T11:09:33.469Z,49.47
2022-08-02T11:14:43.298Z,48.53
2022-08-02T11:20:24.055Z,47.85
2022-08-02T11:26:00.973Z,47.33
2022-08-02T11:31:08.940Z,48.04
2022-08-02T11:36:13.514Z,47.99
2022-08-02T11:41:46.156Z,47.59
2022-08-02T11:47:04.561Z,47.01
2022-08-02T11:52:08.171Z,46.53
2022-08-02T11:57:22.500Z,45.60
2022-08-02T12:02:32.667Z,45.85
2022-08-02T12:07:37.677Z,45.88
2022-08-02T12:12:58.001Z,46.24
2022-08-02T12:18:22.919Z,44.76
2022-08-02T12:23:28.540Z,44.40
2022-08-02T12:28:34.530Z,44.47
2022-08-02T12:33:57.476Z,44.13
2022-08-02T12:39:04.934Z,44.13
2022-08-02T12:44:19.820Z,43.49
2022-08-02T12:49:21.846Z,43.66
2022-08-02T12:54:31.729Z,43.67
2022-08-02T12:59:38.899Z,42.80
2022-08-02T13:04:52.405Z,42.38
2022-08-02T13:10:02.539Z,41.83
2022-08-02T13:15:12.493Z,42.13
2022-08-02T13:20:33.951Z,42.25
2022-08-02T13:25:36.609Z,42.88
2022-08-02T13:30:39.651Z,42.08
2022-08-02T13:35:46.173Z,43.41
2022-08-02T13:41:08.263Z,43.56
2022-08-02T13:46:11.129Z,44.29
2022-08-02T13:51:14.853Z,45.99
2022-08-02T13:56:17.043Z,46.92
2022-08-02T14:01:20.357Z,47.31
2022-08-02T14:06:22.538Z,48.05
2022-08-02T14:11:24.501Z,50.26
2022-08-02T14:16:32.982Z,48.00
2022-08-02T14:21:46.756Z,48.14
2022-08-02T14:26:50.590Z,48.73
2022-08-02T14:31:52.476Z,49.25
2022-08-02T14:36:56.406Z,49.18
2022-08-02T14:42:01.003Z,49.76
2022-08-02T14:47:05.888Z,50.84
2022-08-02T14:52:08.205Z,51.44
2022-08-02T14:57:12.472Z,51.22
2022-08-02T15:02:14.842Z,51.21
2022-08-02T15:07:17.075Z,53.32
2022-08-02T15:12:19.780Z,52.16
2022-08-02T15:17:22.058Z,52.86
2022-08-02T15:22:24.865Z,53.85
2022-08-02T15:27:30.604Z,53.51
2022-08-02T15:32:37.451Z,53.61
2022-08-02T15:37:57.803Z,54.19
2022-08-02T15:43:05.286Z,56.00
2022-08-02T15:48:10.503Z,55.56
2022-08-02T15:53:14.042Z,54.64
2022-08-02T15:58:18.012Z,55.72
2022-08-02T16:03:28.017Z,55.49
2022-08-02T16:08:30.655Z,55.39
2022-08-02T16:13:52.697Z,56.20
2022-08-02T16:18:56.154Z,56.17
2022-08-02T16:24:03.076Z,57.53
2022-08-02T16:29:07.580Z,56.39
2022-08-02T16:34:09.675Z,57.37
2022-08-02T16:39:12.021Z,57.87
2022-08-02T16:50:05.767Z,59.15
2022-08-02T16:55:12.724Z,59.62
2022-08-02T17:00:15.564Z,60.81
2022-08-02T17:05:22.934Z,59.46
2022-08-02T17:10:37.523Z,60.32
2022-08-02T17:16:17.081Z,60.02
2022-08-02T17:21:08.837Z,60.95
2022-08-02T17:26:15.838Z,61.93
2022-08-02T17:31:17.837Z,60.99
2022-08-02T17:36:36.483Z,64.68
2022-08-02T17:41:49.076Z,63.82
2022-08-02T17:46:57.510Z,65.59
2022-08-02T17:52:48.262Z,64.46
2022-08-02T17:57:56.987Z,65.55
2022-08-02T18:02:58.298Z,65.38
2022-08-02T18:08:01.062Z,65.57
2022-08-02T18:13:09.750Z,66.50
2022-08-02T18:18:19.182Z,65.02
2022-08-02T18:23:31.307Z,65.62
2022-08-02T18:28:45.756Z,66.09
2022-08-02T18:34:07.145Z,67.38
2022-08-02T18:39:21.534Z,69.73
2022-08-02T18:44:33.520Z,70.89
2022-08-02T18:49:50.399Z,71.34
2022-08-02T18:55:10.495Z,71.89
2022-08-02T19:00:32.316Z,73.23
2022-08-02T19:05:51.775Z,78.67
2022-08-02T19:11:02.472Z,75.30
2022-08-02T19:16:07.693Z,75.34
2022-08-02T19:21:11.868Z,74.87
2022-08-02T19:26:13.597Z,76.67
2022-08-02T19:31:19.167Z,77.07
2022-08-02T19:36:21.159Z,79.03
2022-08-02T19:41:27.283Z,79.56
2022-08-02T19:46:49.195Z,79.74
2022-08-02T19:51:57.407Z,81.19
2022-08-02T19:56:59.130Z,81.89
2022-08-02T20:02:06.263Z,81.87
2022-08-02T20:07:12.908Z,82.68
2022-08-02T20:12:26.359Z,83.01
2022-08-02T20:17:31.595Z,83.86
2022-08-02T20:22:55.201Z,84.98
2022-08-02T20:27:59.510Z,84.96
2022-08-02T20:33:22.137Z,84.46
2022-08-02T20:38:24.978Z,85.22
2022-08-02T20:43:31.319Z,85.24
2022-08-02T20:48:39.563Z,85.27
2022-08-02T20:53:56.198Z,86.01
2022-08-02T20:59:03.698Z,85.98
2022-08-02T21:04:13.259Z,86.25
2022-08-02T21:09:52.513Z,86.95
2022-08-02T21:14:45.428Z,87.11
2022-08-02T21:19:52.697Z,87.51
2022-08-02T21:24:54.423Z,87.71
2022-08-02T21:30:00.356Z,87.87
2022-08-02T21:35:06.175Z,88.29
2022-08-02T21:40:15.034Z,88.71
2022-08-02T21:45:20.037Z,88.63
2022-08-02T21:50:22.049Z,89.10
2022-08-02T21:56:00.612Z,89.42
2022-08-02T22:00:49.801Z,89.77
2022-08-02T22:05:54.201Z,90.05
2022-08-02T22:11:03.812Z,90.92
2022-08-02T22:16:05.695Z,90.96
2022-08-02T22:21:14.166Z,91.47
2022-08-02T22:26:21.816Z,91.22
2022-08-02T22:31:41.157Z,91.62
2022-08-02T22:36:46.409Z,91.74
2022-08-02T22:42:05.610Z,92.31
2022-08-02T22:47:14.647Z,92.05
2022-08-02T22:52:19.264Z,92.53
2022-08-02T22:57:30.514Z,92.56
2022-08-02T22:58:34.616Z,59.08
2022-08-02T23:02:36.098Z,93.33
2022-08-02T23:07:42.305Z,92.95
2022-08-02T23:12:46.522Z,92.88
2022-08-02T23:18:09.470Z,93.01
2022-08-02T23:23:12.174Z,92.93
2022-08-02T23:28:14.394Z,93.59
2022-08-02T23:33:22.055Z,93.54
2022-08-02T23:38:23.814Z,93.55
2022-08-02T23:43:25.545Z,93.87
2022-08-02T23:48:29.571Z,94.26
2022-08-02T23:53:35.982Z,94.11
2022-08-02T23:58:43.662Z,94.50
